Terminal Aerodrome Forecast
Issued by NWS

Home | Current Version | Previous Version | Text Only | Print | Product List | Glossary Off
Versions: 1 2 3 4 5 6 7 8 9 10 11 12

995
FTUS43 KICT 191728
TAFCNU
TAF
KCNU 191728Z 1918/2018 19013KT P6SM FEW250
     FM200000 17008KT P6SM FEW250
     FM201500 17015G23KT P6SM SCT200=

USA.gov is the U.S. government's official web portal to all federal, state and local government web resources and services.